createdAt,value
2018-12-25T00:00:40.243Z,3.85
2018-12-25T00:01:50.194Z,3.86
2018-12-25T00:03:00.147Z,3.84
2018-12-25T00:04:10.129Z,3.92
2018-12-25T00:05:20.135Z,3.81
2018-12-25T00:06:30.085Z,3.86
2018-12-25T00:07:39.272Z,3.94
2018-12-25T00:08:48.959Z,3.88
2018-12-25T00:09:58.639Z,4
2018-12-25T00:11:08.187Z,3.94
2018-12-25T00:12:17.873Z,3.94
2018-12-25T00:13:27.583Z,3.92
2018-12-25T00:14:37.521Z,3.94
2018-12-25T00:15:47.320Z,3.92
2018-12-25T00:16:57.283Z,3.96
2018-12-25T00:18:06.713Z,4
2018-12-25T00:19:16.407Z,3.94
2018-12-25T00:20:26.110Z,3.96
2018-12-25T00:21:36.039Z,3.96
2018-12-25T00:22:45.968Z,3.96
2018-12-25T00:23:55.901Z,3.91
2018-12-25T00:25:05.661Z,3.96
2018-12-25T00:26:15.624Z,4.02
2018-12-25T00:27:25.413Z,3.94
2018-12-25T00:28:34.859Z,4.07
2018-12-25T00:29:44.795Z,3.99
2018-12-25T00:30:54.725Z,4.07
2018-12-25T00:32:04.437Z,4.04
2018-12-25T00:33:14.379Z,4.07
2018-12-25T00:34:24.063Z,4.1
2018-12-25T00:35:34.003Z,4.12
2018-12-25T00:36:43.932Z,4.12
2018-12-25T00:37:53.620Z,4.1
2018-12-25T00:39:03.556Z,4.16
2018-12-25T00:40:13.492Z,4.16
2018-12-25T00:41:23.523Z,4.2
2018-12-25T00:42:33.220Z,4.14
2018-12-25T00:43:43.165Z,4.12
2018-12-25T00:44:52.843Z,4.16
2018-12-25T00:46:02.771Z,4.21
2018-12-25T00:47:12.458Z,4.2
2018-12-25T00:48:21.981Z,4.2
2018-12-25T00:49:31.911Z,4.25
2018-12-25T00:50:41.346Z,4.21
2018-12-25T00:51:51.298Z,4.25
2018-12-25T00:53:00.981Z,4.22
2018-12-25T00:54:10.425Z,4.22
2018-12-25T00:55:20.101Z,4.21
2018-12-25T00:56:29.540Z,4.22
2018-12-25T00:57:39.489Z,4.25
2018-12-25T00:58:48.913Z,4.21
2018-12-25T00:59:58.948Z,4.21
2018-12-25T01:01:08.640Z,4.22
2018-12-25T01:02:18.578Z,4.28
2018-12-25T01:03:28.523Z,4.24
2018-12-25T01:04:38.222Z,4.18
2018-12-25T01:05:48.052Z,4.2
2018-12-25T01:06:57.523Z,4.27
2018-12-25T01:08:07.299Z,4.31
2018-12-25T01:09:16.751Z,4.24
2018-12-25T01:10:26.690Z,4.24
2018-12-25T01:11:36.140Z,4.24
2018-12-25T01:12:46.079Z,4.21
2018-12-25T01:13:56.023Z,4.24
2018-12-25T01:15:05.953Z,4.2
2018-12-25T01:16:15.889Z,4.21
2018-12-25T01:17:25.831Z,4.18
2018-12-25T01:18:35.527Z,4.2
2018-12-25T01:19:45.219Z,4.25
2018-12-25T01:20:55.173Z,4.18
2018-12-25T01:22:05.131Z,4.22
2018-12-25T01:23:15.084Z,4.22
2018-12-25T01:24:25.009Z,4.24
2018-12-25T01:25:34.705Z,4.18
2018-12-25T01:26:44.398Z,4.14
2018-12-25T01:27:54.179Z,4.18
2018-12-25T01:29:03.863Z,4.16
2018-12-25T01:30:13.879Z,4.22
2018-12-25T01:31:23.824Z,4.16
2018-12-25T01:32:33.796Z,4.12
2018-12-25T01:33:43.244Z,4.07
2018-12-25T01:34:53.196Z,4.02
2018-12-25T01:36:02.885Z,4.09
2018-12-25T01:37:12.817Z,4.14
2018-12-25T01:38:22.495Z,4.1
2018-12-25T01:39:32.194Z,4.02
2018-12-25T01:40:41.386Z,4.03
2018-12-25T01:41:51.341Z,3.99
2018-12-25T01:43:01.285Z,4.04
2018-12-25T01:44:10.731Z,4.03
2018-12-25T01:45:20.669Z,3.99
2018-12-25T01:46:30.727Z,4.03
2018-12-25T01:47:40.678Z,3.99
2018-12-25T01:48:50.610Z,3.99
2018-12-25T01:50:00.577Z,3.99
2018-12-25T01:51:10.508Z,3.96
2018-12-25T01:52:20.199Z,4.02
2018-12-25T01:53:30.142Z,3.96
2018-12-25T01:54:40.083Z,3.94
2018-12-25T01:55:50.020Z,4.1
2018-12-25T01:56:59.701Z,4.1
2018-12-25T01:58:09.390Z,4.03
2018-12-25T01:59:19.327Z,4.13
2018-12-25T02:00:29.262Z,4.06
2018-12-25T02:01:38.955Z,3.99
2018-12-25T02:02:48.899Z,4.07
2018-12-25T02:03:58.582Z,4.07
2018-12-25T02:05:08.292Z,4.13
2018-12-25T02:06:17.985Z,4.13
2018-12-25T02:07:27.913Z,4.13
2018-12-25T02:08:37.848Z,4.09
2018-12-25T02:09:47.799Z,4.14
2018-12-25T02:10:57.848Z,4.1
2018-12-25T02:12:09.697Z,4.18
2018-12-25T02:13:19.642Z,4.21
2018-12-25T02:14:29.382Z,4.2
2018-12-25T02:15:39.344Z,4.25
2018-12-25T02:16:49.296Z,4.25
2018-12-25T02:17:59.005Z,4.32
2018-12-25T02:19:08.940Z,4.31
2018-12-25T02:20:18.810Z,4.39
2018-12-25T02:21:28.757Z,4.38
2018-12-25T02:22:38.684Z,4.32
2018-12-25T02:23:48.628Z,4.34
2018-12-25T02:24:58.652Z,4.43
2018-12-25T02:26:08.574Z,4.36
2018-12-25T02:27:18.262Z,4.38
2018-12-25T02:28:28.199Z,4.38
2018-12-25T02:29:38.156Z,4.42
2018-12-25T02:30:48.184Z,4.4
2018-12-25T02:31:58.124Z,4.4
2018-12-25T02:33:07.841Z,4.42
2018-12-25T02:34:17.525Z,4.38
2018-12-25T02:35:26.968Z,4.56
2018-12-25T02:36:36.473Z,4.39
2018-12-25T02:37:46.409Z,4.45
2018-12-25T02:38:56.107Z,4.48
2018-12-25T02:40:06.043Z,4.52
2018-12-25T02:41:15.997Z,4.53
2018-12-25T02:42:25.953Z,4.53
2018-12-25T02:43:35.646Z,4.53
2018-12-25T02:44:45.695Z,4.4
2018-12-25T02:45:55.385Z,4.4
2018-12-25T02:47:05.357Z,4.4
2018-12-25T02:48:15.308Z,4.46
2018-12-25T02:49:25.004Z,4.36
2018-12-25T02:50:34.943Z,4.45
2018-12-25T02:51:44.910Z,4.38
2018-12-25T02:52:54.857Z,4.43
2018-12-25T02:54:04.811Z,4.4
2018-12-25T02:55:14.774Z,4.46
2018-12-25T02:56:24.871Z,4.5
2018-12-25T02:57:34.843Z,4.57
2018-12-25T02:58:44.806Z,4.48
2018-12-25T02:59:54.748Z,4.49
2018-12-25T03:01:04.727Z,4.53
2018-12-25T03:02:14.479Z,4.53
2018-12-25T03:03:24.427Z,4.48
2018-12-25T03:04:34.363Z,4.52
2018-12-25T03:05:44.327Z,4.46
2018-12-25T03:06:54.025Z,4.48
2018-12-25T03:08:03.970Z,4.49
2018-12-25T03:09:14.134Z,4.5
2018-12-25T03:10:24.133Z,4.53
2018-12-25T03:11:34.089Z,4.52
2018-12-25T03:12:43.774Z,4.4
2018-12-25T03:13:53.473Z,4.45
2018-12-25T03:15:03.182Z,4.4
2018-12-25T03:16:13.133Z,4.39
2018-12-25T03:17:22.817Z,4.43
2018-12-25T03:18:32.250Z,4.45
2018-12-25T03:19:42.205Z,4.39
2018-12-25T03:20:52.150Z,4.4
2018-12-25T03:22:02.102Z,4.43
2018-12-25T03:23:11.541Z,4.45
2018-12-25T03:24:21.243Z,4.38
2018-12-25T03:25:31.192Z,4.46
2018-12-25T03:26:41.008Z,4.43
2018-12-25T03:27:50.967Z,4.43
2018-12-25T03:29:00.921Z,4.39
2018-12-25T03:30:10.616Z,4.45
2018-12-25T03:31:20.586Z,4.36
2018-12-25T03:32:30.738Z,4.45
2018-12-25T03:33:40.449Z,4.38
2018-12-25T03:34:50.391Z,4.46
2018-12-25T03:35:59.857Z,4.4
2018-12-25T03:37:09.310Z,4.38
2018-12-25T03:38:18.522Z,4.42
2018-12-25T03:39:28.491Z,4.38
2018-12-25T03:40:38.444Z,4.39
2018-12-25T03:41:48.183Z,4.5
2018-12-25T03:42:58.149Z,4.42
2018-12-25T03:44:08.118Z,4.57
2018-12-25T03:45:18.073Z,4.53
2018-12-25T03:46:27.775Z,4.53
2018-12-25T03:47:37.479Z,4.42
2018-12-25T03:48:47.428Z,4.42
2018-12-25T03:49:57.369Z,4.4
2018-12-25T03:51:18.049Z,4.4
2018-12-25T03:52:28.009Z,4.38
2018-12-25T03:53:37.966Z,4.45
2018-12-25T03:54:47.922Z,4.53
2018-12-25T03:55:57.901Z,4.38
2018-12-25T03:57:07.992Z,4.49
2018-12-25T03:58:17.179Z,4.48
2018-12-25T03:59:27.123Z,4.52
2018-12-25T04:00:36.824Z,4.56
2018-12-25T04:01:46.771Z,4.52
2018-12-25T04:02:56.726Z,4.53
2018-12-25T04:04:06.693Z,4.49
2018-12-25T04:05:16.657Z,4.49
2018-12-25T04:06:26.417Z,4.5
2018-12-25T04:07:36.365Z,4.5
2018-12-25T04:08:46.409Z,4.5
2018-12-25T04:09:56.095Z,4.52
2018-12-25T04:11:05.794Z,4.53
2018-12-25T04:12:15.255Z,4.56
2018-12-25T04:13:25.222Z,4.56
2018-12-25T04:14:34.963Z,4.58
2018-12-25T04:15:44.648Z,4.53
2018-12-25T04:16:54.337Z,4.6
2018-12-25T04:18:04.050Z,4.5
2018-12-25T04:19:13.759Z,4.52
2018-12-25T04:20:24.809Z,4.53
2018-12-25T04:21:34.506Z,4.56
2018-12-25T04:22:44.441Z,4.52
2018-12-25T04:23:54.168Z,4.53
2018-12-25T04:25:04.167Z,4.58
2018-12-25T04:26:13.870Z,4.6
2018-12-25T04:27:23.570Z,4.49
2018-12-25T04:28:33.020Z,4.53
2018-12-25T04:29:42.970Z,4.56
2018-12-25T04:30:52.912Z,4.6
2018-12-25T04:32:02.866Z,4.56
2018-12-25T04:33:12.798Z,4.58
2018-12-25T04:34:22.737Z,4.52
2018-12-25T04:35:32.691Z,4.57
2018-12-25T04:36:42.669Z,4.58
2018-12-25T04:37:52.368Z,4.48
2018-12-25T04:39:01.903Z,4.5
2018-12-25T04:40:11.853Z,4.53
2018-12-25T04:41:21.542Z,4.53
2018-12-25T04:42:31.271Z,4.49
2018-12-25T04:43:41.231Z,4.48
2018-12-25T04:44:50.904Z,4.52
2018-12-25T04:46:00.603Z,4.45
2018-12-25T04:47:10.313Z,4.52
2018-12-25T04:48:20.256Z,4.53
2018-12-25T04:49:30.197Z,4.4
2018-12-25T04:50:40.130Z,4.52
2018-12-25T04:51:50.073Z,4.45
2018-12-25T04:53:00.010Z,4.39
2018-12-25T04:54:09.946Z,4.4
2018-12-25T04:55:19.923Z,4.45
2018-12-25T04:56:29.846Z,4.43
2018-12-25T04:57:39.796Z,4.38
2018-12-25T04:58:49.728Z,4.4
2018-12-25T04:59:59.667Z,4.42
2018-12-25T05:01:09.612Z,4.39
2018-12-25T05:02:19.292Z,4.34
2018-12-25T05:03:28.736Z,4.36
2018-12-25T05:04:38.189Z,4.42
2018-12-25T05:05:48.135Z,4.4
2018-12-25T05:06:57.836Z,4.4
2018-12-25T05:08:07.836Z,4.39
2018-12-25T05:09:17.776Z,4.42
2018-12-25T05:10:27.707Z,4.3
2018-12-25T05:11:37.658Z,4.43
2018-12-25T05:12:47.592Z,4.46
2018-12-25T05:13:57.303Z,4.4
2018-12-25T05:15:07.232Z,4.45
2018-12-25T05:16:16.914Z,4.43
2018-12-25T05:17:26.860Z,4.39
2018-12-25T05:18:36.794Z,4.43
2018-12-25T05:19:46.742Z,4.46
2018-12-25T05:20:56.678Z,4.4
2018-12-25T05:22:06.615Z,4.39
2018-12-25T05:23:16.296Z,4.42
2018-12-25T05:24:26.008Z,4.4
2018-12-25T05:25:35.951Z,4.4
2018-12-25T05:26:45.393Z,4.39
2018-12-25T05:27:54.584Z,4.4
2018-12-25T05:29:04.514Z,4.36
2018-12-25T05:30:14.221Z,4.43
2018-12-25T05:31:23.666Z,4.39
2018-12-25T05:32:33.608Z,4.43
2018-12-25T05:33:43.562Z,4.4
2018-12-25T05:34:53.512Z,4.39
2018-12-25T05:36:02.954Z,4.4
2018-12-25T05:37:12.900Z,4.32
2018-12-25T05:38:22.841Z,4.25
2018-12-25T05:39:32.772Z,4.36
2018-12-25T05:40:42.704Z,4.34
2018-12-25T05:41:52.652Z,4.34
2018-12-25T05:43:02.607Z,4.36
2018-12-25T05:44:12.541Z,4.3
2018-12-25T05:45:22.474Z,4.42
2018-12-25T05:46:32.173Z,4.42
2018-12-25T05:47:41.862Z,4.36
2018-12-25T05:48:51.802Z,4.32
2018-12-25T05:50:01.746Z,4.34
2018-12-25T05:51:11.696Z,4.36
2018-12-25T05:52:21.634Z,4.36
2018-12-25T05:53:31.330Z,4.31
2018-12-25T05:54:41.271Z,4.32
2018-12-25T05:55:51.207Z,4.39
2018-12-25T05:57:00.899Z,4.38
2018-12-25T05:58:10.850Z,4.27
2018-12-25T05:59:20.798Z,4.36
2018-12-25T06:00:30.246Z,4.28
2018-12-25T06:01:40.174Z,4.31
2018-12-25T06:02:49.615Z,4.3
2018-12-25T06:03:59.555Z,4.28
2018-12-25T06:05:09.590Z,4.38
2018-12-25T06:06:19.532Z,4.36
2018-12-25T06:07:29.217Z,4.3
2018-12-25T06:08:39.166Z,4.32
2018-12-25T06:09:50.188Z,4.3
2018-12-25T06:10:59.876Z,4.28
2018-12-25T06:12:09.588Z,4.31
2018-12-25T06:13:19.523Z,4.45
2018-12-25T06:14:29.452Z,4.38
2018-12-25T06:15:39.134Z,4.36
2018-12-25T06:16:48.826Z,4.45
2018-12-25T06:17:58.999Z,4.3
2018-12-25T06:19:08.687Z,4.4
2018-12-25T06:20:18.223Z,4.39
2018-12-25T06:21:28.166Z,4.34
2018-12-25T06:22:38.088Z,4.4
2018-12-25T06:23:48.021Z,4.39
2018-12-25T06:24:57.458Z,4.43
2018-12-25T06:26:07.162Z,4.42
2018-12-25T06:27:16.851Z,4.42
2018-12-25T06:28:26.900Z,4.43
2018-12-25T06:29:36.838Z,4.36
2018-12-25T06:30:46.274Z,4.43
2018-12-25T06:31:56.222Z,4.4
2018-12-25T06:33:05.425Z,4.43
2018-12-25T06:34:15.109Z,4.4
2018-12-25T06:35:25.040Z,4.52
2018-12-25T06:36:34.989Z,4.45
2018-12-25T06:37:44.931Z,4.38
2018-12-25T06:38:54.862Z,4.4
2018-12-25T06:40:04.544Z,4.4
2018-12-25T06:41:14.476Z,4.39
2018-12-25T06:42:24.413Z,4.39
2018-12-25T06:43:34.163Z,4.4
2018-12-25T06:44:44.095Z,4.38
2018-12-25T06:45:54.042Z,4.42
2018-12-25T06:47:04.007Z,4.5
2018-12-25T06:48:13.942Z,4.45
2018-12-25T06:49:23.620Z,4.39
2018-12-25T06:50:33.302Z,4.43
2018-12-25T06:51:42.985Z,4.43
2018-12-25T06:52:52.937Z,4.43
2018-12-25T06:54:02.367Z,4.45
2018-12-25T06:55:12.310Z,4.4
2018-12-25T06:56:21.747Z,4.42
2018-12-25T06:57:31.696Z,4.43
2018-12-25T06:58:41.624Z,4.42
2018-12-25T06:59:51.079Z,4.38
2018-12-25T07:01:00.765Z,4.4
2018-12-25T07:02:10.461Z,4.4
2018-12-25T07:03:20.150Z,4.43
2018-12-25T07:04:29.832Z,4.4
2018-12-25T07:05:39.756Z,4.4
2018-12-25T07:06:50.528Z,4.36
2018-12-25T07:08:00.344Z,4.39
2018-12-25T07:09:10.277Z,4.39
2018-12-25T07:10:20.513Z,4.46
2018-12-25T07:11:29.703Z,4.43
2018-12-25T07:12:39.628Z,4.4
2018-12-25T07:13:49.329Z,4.4
2018-12-25T07:14:58.771Z,4.38
2018-12-25T07:16:08.214Z,4.36
2018-12-25T07:17:17.902Z,4.43
2018-12-25T07:18:27.594Z,4.45
2018-12-25T07:19:37.534Z,4.4
2018-12-25T07:20:47.243Z,4.42
2018-12-25T07:21:57.185Z,4.5
2018-12-25T07:23:07.121Z,4.43
2018-12-25T07:24:16.562Z,4.36
2018-12-25T07:25:25.998Z,4.43
2018-12-25T07:26:35.449Z,4.4
2018-12-25T07:27:45.403Z,4.36
2018-12-25T07:28:55.100Z,4.42
2018-12-25T07:30:04.813Z,4.38
2018-12-25T07:31:14.754Z,4.34
2018-12-25T07:32:24.199Z,4.43
2018-12-25T07:33:34.134Z,4.38
2018-12-25T07:34:44.163Z,4.27
2018-12-25T07:35:54.102Z,4.22
2018-12-25T07:37:04.057Z,4.25
2018-12-25T07:38:14.003Z,4.18
2018-12-25T07:39:23.440Z,4.16
2018-12-25T07:40:33.398Z,4.16
2018-12-25T07:41:43.338Z,4.21
2018-12-25T07:42:53.042Z,4.21
2018-12-25T07:44:02.485Z,4.12
2018-12-25T07:45:12.419Z,4
2018-12-25T07:46:22.352Z,3.99
2018-12-25T07:47:32.044Z,4.1
2018-12-25T07:48:41.502Z,4
2018-12-25T07:49:51.198Z,4.14
2018-12-25T07:51:01.126Z,4.14
2018-12-25T07:52:10.814Z,4.02
2018-12-25T07:53:20.741Z,4.12
2018-12-25T07:54:30.422Z,4.1
2018-12-25T07:55:40.106Z,4.09
2018-12-25T07:56:49.811Z,4.14
2018-12-25T07:57:59.730Z,4.12
2018-12-25T07:59:09.420Z,4.06
2018-12-25T08:00:19.591Z,4.07
2018-12-25T08:01:29.609Z,4.04
2018-12-25T08:02:39.543Z,4.03
2018-12-25T08:03:48.978Z,3.99
2018-12-25T08:04:58.910Z,4
2018-12-25T08:06:08.872Z,3.96
2018-12-25T08:07:18.328Z,4.1
2018-12-25T08:08:28.032Z,4.12
2018-12-25T08:09:37.740Z,4.16
2018-12-25T08:10:47.688Z,4.22
2018-12-25T08:11:57.378Z,4.14
2018-12-25T08:13:09.625Z,4.18
2018-12-25T08:14:19.689Z,4.2
2018-12-25T08:15:29.623Z,4.2
2018-12-25T08:16:39.298Z,4.24
2018-12-25T08:17:49.254Z,4.28
2018-12-25T08:18:58.940Z,4.22
2018-12-25T08:20:08.874Z,4.24
2018-12-25T08:21:18.552Z,4.27
2018-12-25T08:22:36.555Z,4.28
2018-12-25T08:23:46.496Z,4.32
2018-12-25T08:24:56.434Z,4.34
2018-12-25T08:26:06.611Z,4.27
2018-12-25T08:27:16.566Z,4.38
2018-12-25T08:28:26.256Z,4.38
2018-12-25T08:29:36.198Z,4.3
2018-12-25T08:30:46.156Z,4.4
2018-12-25T08:31:56.094Z,4.32
2018-12-25T08:33:06.035Z,4.38
2018-12-25T08:34:15.985Z,4.42
2018-12-25T08:35:25.932Z,4.4
2018-12-25T08:36:36.507Z,4.39
2018-12-25T08:37:46.308Z,4.38
2018-12-25T08:38:56.250Z,4.4
2018-12-25T08:40:05.932Z,4.38
2018-12-25T08:41:15.622Z,4.38
2018-12-25T08:42:25.584Z,4.4
2018-12-25T08:43:35.558Z,4.5
2018-12-25T08:44:45.240Z,4.48
2018-12-25T08:45:54.921Z,4.42
2018-12-25T08:47:07.263Z,4.56
2018-12-25T08:48:19.246Z,4.49
2018-12-25T08:49:29.182Z,4.53
2018-12-25T08:50:39.120Z,4.49
2018-12-25T08:51:49.065Z,4.57
2018-12-25T08:52:58.757Z,4.5
2018-12-25T08:54:08.688Z,4.5
2018-12-25T08:55:18.648Z,4.68
2018-12-25T08:56:28.590Z,4.64
2018-12-25T08:57:38.295Z,4.57
2018-12-25T08:58:48.230Z,4.63
2018-12-25T08:59:57.921Z,4.57
2018-12-25T09:01:07.615Z,4.68
2018-12-25T09:02:17.559Z,4.68
2018-12-25T09:03:27.247Z,4.71
2018-12-25T09:04:36.940Z,4.68
2018-12-25T09:05:46.898Z,4.71
2018-12-25T09:06:56.092Z,4.74
2018-12-25T09:08:06.032Z,4.74
2018-12-25T09:09:15.720Z,4.74
2018-12-25T09:10:25.517Z,4.87
2018-12-25T09:11:35.456Z,4.89
2018-12-25T09:12:45.148Z,4.89
2018-12-25T09:13:55.094Z,4.82
2018-12-25T09:15:05.031Z,4.87
2018-12-25T09:16:15.075Z,4.94
2018-12-25T09:17:25.035Z,4.86
2018-12-25T09:18:34.476Z,4.92
2018-12-25T09:19:44.420Z,4.87
2018-12-25T09:20:54.112Z,4.83
2018-12-25T09:22:04.078Z,4.92
2018-12-25T09:23:13.867Z,4.9
2018-12-25T09:24:23.808Z,4.95
2018-12-25T09:25:33.747Z,4.9
2018-12-25T09:26:43.714Z,4.92
2018-12-25T09:27:53.659Z,4.95
2018-12-25T09:29:03.598Z,5
2018-12-25T09:30:13.548Z,5
2018-12-25T09:31:23.236Z,5.02
2018-12-25T09:32:32.931Z,4.97
2018-12-25T09:33:42.868Z,4.98
2018-12-25T09:34:52.917Z,5
2018-12-25T09:36:02.966Z,4.97
2018-12-25T09:37:12.912Z,5.12
2018-12-25T09:38:22.973Z,5.05
2018-12-25T09:39:32.730Z,5
2018-12-25T09:40:42.667Z,5.01
2018-12-25T09:41:52.371Z,5.16
2018-12-25T09:43:02.060Z,5.07
2018-12-25T09:44:11.996Z,5.13
2018-12-25T09:45:21.684Z,5.15
2018-12-25T09:46:31.389Z,5.18
2018-12-25T09:47:40.830Z,5.15
2018-12-25T09:48:50.793Z,5.12
2018-12-25T09:50:00.755Z,5.15
2018-12-25T09:51:10.462Z,5.12
2018-12-25T09:52:20.150Z,5.15
2018-12-25T09:53:29.940Z,5.19
2018-12-25T09:54:39.886Z,5.23
2018-12-25T09:55:49.828Z,5.15
2018-12-25T09:56:59.762Z,5.22
2018-12-25T09:58:09.716Z,5.25
2018-12-25T09:59:19.714Z,5.2
2018-12-25T10:00:29.140Z,5.33
2018-12-25T10:01:39.090Z,5.22
2018-12-25T10:02:49.023Z,5.25
2018-12-25T10:03:58.969Z,5.31
2018-12-25T10:05:08.906Z,5.33
2018-12-25T10:06:18.599Z,5.26
2018-12-25T10:07:28.545Z,5.31
2018-12-25T10:08:38.476Z,5.26
2018-12-25T10:09:48.168Z,5.31
2018-12-25T10:10:58.102Z,5.37
2018-12-25T10:12:08.066Z,5.33
2018-12-25T10:13:17.514Z,5.31
2018-12-25T10:14:27.208Z,5.38
2018-12-25T10:15:36.908Z,5.4
2018-12-25T10:16:46.345Z,5.4
2018-12-25T10:17:57.349Z,5.36
2018-12-25T10:19:07.300Z,5.28
2018-12-25T10:20:16.755Z,5.37
2018-12-25T10:21:26.699Z,5.33
2018-12-25T10:22:36.494Z,5.36
2018-12-25T10:23:46.448Z,5.36
2018-12-25T10:24:56.248Z,5.43
2018-12-25T10:26:05.935Z,5.4
2018-12-25T10:27:15.896Z,5.44
2018-12-25T10:28:25.337Z,5.46
2018-12-25T10:29:35.036Z,5.49
2018-12-25T10:30:44.735Z,5.46
2018-12-25T10:31:54.673Z,5.44
2018-12-25T10:33:04.368Z,5.46
2018-12-25T10:34:14.052Z,5.46
2018-12-25T10:35:24.028Z,5.43
2018-12-25T10:36:33.964Z,5.46
2018-12-25T10:37:45.503Z,5.43
2018-12-25T10:38:55.445Z,5.46
2018-12-25T10:40:05.465Z,5.51
2018-12-25T10:41:15.419Z,5.56
2018-12-25T10:42:25.100Z,5.56
2018-12-25T10:43:34.931Z,5.61
2018-12-25T10:44:44.991Z,5.54
2018-12-25T10:45:54.682Z,5.58
2018-12-25T10:47:04.639Z,5.58
2018-12-25T10:48:14.328Z,5.59
2018-12-25T10:49:24.027Z,5.7
2018-12-25T10:50:33.736Z,5.64
2018-12-25T10:51:43.708Z,5.64
2018-12-25T10:52:53.492Z,5.67
2018-12-25T10:54:03.191Z,5.58
2018-12-25T10:55:13.136Z,5.74
2018-12-25T10:56:23.087Z,5.76
2018-12-25T10:57:32.817Z,5.72
2018-12-25T10:58:42.267Z,5.76
2018-12-25T10:59:52.196Z,5.77
2018-12-25T11:01:01.887Z,5.67
2018-12-25T11:02:11.964Z,5.7
2018-12-25T11:03:21.895Z,5.65
2018-12-25T11:04:31.598Z,5.7
2018-12-25T11:05:41.307Z,5.8
2018-12-25T11:06:51.245Z,5.74
2018-12-25T11:08:01.187Z,5.77
2018-12-25T11:09:10.899Z,5.84
2018-12-25T11:10:21.759Z,5.9
2018-12-25T11:11:31.185Z,5.92
2018-12-25T11:12:40.869Z,5.98
2018-12-25T11:13:50.810Z,6.02
2018-12-25T11:15:00.816Z,5.95
2018-12-25T11:16:10.757Z,5.98
2018-12-25T11:17:20.708Z,5.99
2018-12-25T11:18:30.403Z,6.05
2018-12-25T11:19:40.113Z,6.05
2018-12-25T11:20:50.066Z,5.98
2018-12-25T11:22:00.021Z,6.05
2018-12-25T11:23:09.743Z,5.95
2018-12-25T11:24:19.717Z,6.05
2018-12-25T11:25:29.665Z,6.02
2018-12-25T11:26:39.108Z,5.98
2018-12-25T11:27:49.071Z,5.97
2018-12-25T11:28:58.795Z,6.07
2018-12-25T11:30:08.491Z,6.13
2018-12-25T11:31:18.432Z,6.07
2018-12-25T11:32:27.875Z,6.13
2018-12-25T11:33:37.558Z,6.17
2018-12-25T11:34:46.999Z,6.1
2018-12-25T11:35:56.797Z,6.15
2018-12-25T11:37:06.245Z,6.1
2018-12-25T11:38:16.181Z,6.16
2018-12-25T11:39:26.227Z,6.32
2018-12-25T11:40:36.168Z,6.15
2018-12-25T11:41:46.109Z,6.15
2018-12-25T11:42:55.808Z,6.15
2018-12-25T11:44:05.755Z,6.19
2018-12-25T11:45:15.707Z,6.16
2018-12-25T11:46:25.389Z,6.13
2018-12-25T11:47:35.327Z,6.16
2018-12-25T11:48:45.029Z,6.16
2018-12-25T11:49:54.495Z,6.17
2018-12-25T11:51:03.943Z,6.17
2018-12-25T11:52:13.887Z,6.16
2018-12-25T11:53:23.593Z,6.15
2018-12-25T11:54:33.029Z,6.12
2018-12-25T11:55:42.983Z,6.19
2018-12-25T11:56:52.673Z,6.12
2018-12-25T11:58:02.647Z,6.17
2018-12-25T11:59:12.437Z,6.12
2018-12-25T12:00:22.121Z,6.15
2018-12-25T12:01:31.811Z,6.09
2018-12-25T12:02:41.269Z,6.09
2018-12-25T12:03:50.967Z,6.15
2018-12-25T12:05:00.914Z,6.15
2018-12-25T12:06:10.869Z,6.12
2018-12-25T12:07:20.556Z,6.17
2018-12-25T12:08:30.263Z,6.1
2018-12-25T12:09:40.203Z,6.09
2018-12-25T12:10:49.913Z,6.09
2018-12-25T12:11:59.619Z,6.07
2018-12-25T12:13:09.559Z,6.17
2018-12-25T12:14:18.757Z,6.1
2018-12-25T12:15:28.710Z,6.12
2018-12-25T12:16:38.655Z,6.16
2018-12-25T12:17:48.597Z,6.15
2018-12-25T12:18:58.602Z,6.1
2018-12-25T12:20:08.545Z,6.09
2018-12-25T12:21:18.730Z,6.09
2018-12-25T12:22:36.703Z,6.09
2018-12-25T12:23:46.883Z,6.16
2018-12-25T12:24:56.837Z,6.22
2018-12-25T12:26:06.549Z,6.2
2018-12-25T12:27:16.501Z,6.15
2018-12-25T12:28:26.441Z,6.22
2018-12-25T12:29:36.402Z,6.16
2018-12-25T12:30:46.101Z,6.17
2018-12-25T12:31:56.058Z,6.13
2018-12-25T12:33:05.759Z,6.15
2018-12-25T12:34:15.709Z,6.17
2018-12-25T12:35:25.656Z,6.1
2018-12-25T12:36:35.346Z,6.06
2018-12-25T12:37:45.297Z,6.12
2018-12-25T12:38:55.368Z,6.2
2018-12-25T12:40:05.330Z,6.06
2018-12-25T12:41:15.344Z,6.15
2018-12-25T12:42:24.794Z,6.16
2018-12-25T12:43:34.740Z,6.15
2018-12-25T12:44:44.670Z,6.17
2018-12-25T12:45:54.611Z,6.12
2018-12-25T12:47:04.317Z,6.13
2018-12-25T12:48:13.797Z,6.17
2018-12-25T12:49:23.259Z,6.16
2018-12-25T12:50:32.711Z,6.1
2018-12-25T12:51:42.665Z,6.19
2018-12-25T12:52:52.613Z,6.17
2018-12-25T12:54:02.543Z,6.22
2018-12-25T12:55:12.520Z,6.15
2018-12-25T12:56:22.448Z,6.1
2018-12-25T12:57:32.395Z,6.15
2018-12-25T12:58:44.310Z,6.1
2018-12-25T12:59:54.281Z,6.17
2018-12-25T13:01:04.235Z,6.13
2018-12-25T13:02:13.916Z,6.19
2018-12-25T13:03:23.882Z,6.22
2018-12-25T13:04:33.848Z,6.13
2018-12-25T13:05:43.900Z,6.1
2018-12-25T13:06:53.849Z,6.13
2018-12-25T13:08:03.789Z,6.19
2018-12-25T13:09:13.499Z,6.16
2018-12-25T13:10:23.435Z,6.16
2018-12-25T13:11:33.129Z,6.15
2018-12-25T13:12:42.822Z,6.19
2018-12-25T13:13:52.526Z,6.2
2018-12-25T13:15:02.249Z,6.13
2018-12-25T13:16:11.987Z,6.22
2018-12-25T13:17:21.943Z,6.25
2018-12-25T13:18:31.875Z,6.12
2018-12-25T13:19:41.812Z,6.16
2018-12-25T13:20:51.753Z,6.25
2018-12-25T13:22:01.463Z,6.16
2018-12-25T13:23:11.406Z,6.16
2018-12-25T13:24:21.106Z,6.22
2018-12-25T13:25:32.258Z,6.17
2018-12-25T13:26:41.957Z,6.15
2018-12-25T13:27:51.907Z,6.17
2018-12-25T13:29:01.852Z,6.12
2018-12-25T13:30:11.797Z,6.13
2018-12-25T13:31:21.511Z,6.1
2018-12-25T13:32:31.465Z,6.15
2018-12-25T13:33:41.413Z,6.19
2018-12-25T13:34:51.350Z,6.17
2018-12-25T13:36:02.842Z,6.19
2018-12-25T13:37:12.789Z,6.12
2018-12-25T13:38:22.270Z,6.13
2018-12-25T13:39:32.214Z,6.19
2018-12-25T13:40:41.906Z,6.1
2018-12-25T13:41:51.848Z,6.15
2018-12-25T13:43:01.793Z,6.13
2018-12-25T13:44:11.490Z,6.2
2018-12-25T13:45:21.188Z,6.12
2018-12-25T13:46:30.883Z,6.15
2018-12-25T13:47:40.579Z,6.13
2018-12-25T13:48:50.520Z,6.16
2018-12-25T13:50:00.265Z,6.13
2018-12-25T13:51:09.973Z,6.2
2018-12-25T13:52:19.652Z,6.15
2018-12-25T13:53:29.596Z,6.16
2018-12-25T13:54:39.275Z,6.13
2018-12-25T13:55:48.970Z,6.15
2018-12-25T13:56:58.908Z,6.13
2018-12-25T13:58:08.874Z,6.13
2018-12-25T13:59:18.811Z,6.15
2018-12-25T14:00:28.753Z,6.13
2018-12-25T14:01:38.704Z,6.13
2018-12-25T14:02:48.386Z,6.16
2018-12-25T14:03:58.336Z,6.17
2018-12-25T14:05:08.314Z,6.1
2018-12-25T14:06:17.996Z,6.16
2018-12-25T14:07:27.936Z,6.1
2018-12-25T14:08:37.884Z,6.16
2018-12-25T14:09:47.601Z,6.12
2018-12-25T14:10:57.548Z,6.07
2018-12-25T14:12:07.485Z,6.16
2018-12-25T14:13:17.184Z,6.09
2018-12-25T14:14:26.870Z,6.06
2018-12-25T14:15:36.590Z,6.1
2018-12-25T14:16:46.547Z,6.17
2018-12-25T14:17:56.230Z,6.1
2018-12-25T14:19:05.672Z,6.02
2018-12-25T14:20:15.627Z,6.16
2018-12-25T14:21:25.325Z,6.06
2018-12-25T14:22:35.029Z,6.06
2018-12-25T14:23:44.720Z,6.15
2018-12-25T14:24:54.443Z,6.15
2018-12-25T14:26:04.138Z,6.07
2018-12-25T14:27:13.836Z,6.07
2018-12-25T14:28:23.530Z,6.09
2018-12-25T14:29:33.489Z,6.06
2018-12-25T14:30:43.196Z,5.99
2018-12-25T14:31:53.157Z,6.09
2018-12-25T14:33:03.109Z,6.01
2018-12-25T14:34:13.045Z,6.1
2018-12-25T14:35:23.935Z,6.12
2018-12-25T14:36:33.893Z,5.99
2018-12-25T14:37:43.834Z,6.12
2018-12-25T14:38:53.794Z,6.05
2018-12-25T14:40:03.752Z,6.05
2018-12-25T14:41:14.311Z,6.12
2018-12-25T14:42:24.002Z,6.12
2018-12-25T14:43:33.753Z,6.09
2018-12-25T14:44:43.707Z,6.01
2018-12-25T14:45:53.654Z,5.98
2018-12-25T14:47:03.592Z,6.07
2018-12-25T14:48:13.297Z,6.06
2018-12-25T14:49:23.172Z,6.15
2018-12-25T14:50:33.113Z,6.01
2018-12-25T14:51:43.053Z,5.99
2018-12-25T14:52:52.992Z,6.01
2018-12-25T14:54:02.690Z,5.99
2018-12-25T14:55:12.696Z,5.98
2018-12-25T14:56:22.640Z,6.12
2018-12-25T14:57:32.590Z,6.07
2018-12-25T14:58:42.538Z,6.1
2018-12-25T14:59:52.470Z,6.09
2018-12-25T15:01:02.415Z,6.1
2018-12-25T15:02:12.368Z,6.09
2018-12-25T15:03:22.068Z,6.02
2018-12-25T15:04:32.002Z,6.13
2018-12-25T15:05:41.948Z,6.06
2018-12-25T15:06:51.888Z,6.05
2018-12-25T15:08:01.836Z,6.06
2018-12-25T15:09:11.777Z,6.12
2018-12-25T15:10:21.466Z,6.06
2018-12-25T15:11:31.402Z,6.05
2018-12-25T15:12:40.843Z,6.05
2018-12-25T15:13:50.530Z,6.05
2018-12-25T15:15:00.217Z,6.12
2018-12-25T15:16:10.275Z,6.07
2018-12-25T15:17:19.960Z,6.05
2018-12-25T15:18:29.898Z,6.01
2018-12-25T15:19:39.352Z,6.13
2018-12-25T15:20:49.039Z,6.02
2018-12-25T15:21:58.724Z,6.12
2018-12-25T15:23:08.680Z,6.05
2018-12-25T15:24:18.628Z,6.16
2018-12-25T15:25:28.584Z,6.07
2018-12-25T15:26:38.286Z,6.07
2018-12-25T15:27:48.255Z,6.13
2018-12-25T15:28:58.234Z,6.06
2018-12-25T15:30:08.196Z,6.06
2018-12-25T15:31:17.645Z,5.98
2018-12-25T15:32:27.340Z,5.99
2018-12-25T15:33:37.030Z,6.05
2018-12-25T15:34:46.500Z,6.1
2018-12-25T15:35:56.179Z,6.06